createdAt,value
2022-11-15T00:04:19.764Z,122.72
2022-11-15T00:09:43.391Z,99.85
2022-11-15T00:15:06.472Z,119.45
2022-11-15T00:20:26.540Z,117.75
2022-11-15T00:25:47.260Z,111.35
2022-11-15T00:31:12.201Z,100.57
2022-11-15T00:36:35.523Z,108.63
2022-11-15T00:41:55.564Z,120.70
2022-11-15T00:47:15.559Z,121.57
2022-11-15T00:52:35.991Z,129.43
2022-11-15T00:57:55.765Z,110.80
2022-11-15T01:03:16.019Z,128.75
2022-11-15T01:08:36.946Z,121.38
2022-11-15T01:13:57.518Z,101.10
2022-11-15T01:19:17.572Z,97.32
2022-11-15T01:24:38.041Z,137.55
2022-11-15T01:29:59.085Z,101.63
2022-11-15T01:35:19.286Z,103.13
2022-11-15T01:40:39.481Z,91.18
2022-11-15T01:46:16.566Z,87.53
2022-11-15T01:51:36.813Z,85.63
2022-11-15T01:57:02.773Z,96.40
2022-11-15T02:02:23.061Z,88.57
2022-11-15T02:07:43.614Z,79.00
2022-11-15T02:13:04.139Z,94.70
2022-11-15T02:18:33.221Z,89.55
2022-11-15T02:24:12.009Z,91.75
2022-11-15T02:30:02.977Z,88.03
2022-11-15T02:35:49.433Z,93.47
2022-11-15T02:41:21.094Z,100.82
2022-11-15T02:47:12.483Z,90.93
2022-11-15T02:52:32.643Z,81.85
2022-11-15T02:58:00.846Z,75.68
2022-11-15T03:03:23.839Z,72.47
2022-11-15T03:08:50.917Z,89.15
2022-11-15T03:14:24.372Z,74.28
2022-11-15T03:19:44.565Z,83.63
2022-11-15T03:25:09.487Z,83.78
2022-11-15T03:30:33.041Z,79.68
2022-11-15T03:35:55.045Z,80.93
2022-11-15T03:41:39.157Z,73.45
2022-11-15T03:47:07.529Z,78.40
2022-11-15T03:52:33.175Z,92.45
2022-11-15T03:57:57.938Z,143.02
2022-11-15T04:03:17.979Z,116.18
2022-11-15T04:08:38.157Z,146.35
2022-11-15T04:13:58.452Z,91.30
2022-11-15T04:19:37.059Z,137.82
2022-11-15T04:24:56.851Z,120.70
2022-11-15T04:30:16.988Z,120.65
2022-11-15T04:35:37.053Z,200.93
2022-11-15T04:40:57.622Z,236.88
2022-11-15T04:46:17.913Z,289.75
2022-11-15T04:51:38.367Z,125.22
2022-11-15T04:56:58.803Z,226.10
2022-11-15T05:02:19.137Z,229.15
2022-11-15T05:07:39.387Z,200.02
2022-11-15T05:12:59.788Z,141.02
2022-11-15T05:18:23.731Z,332.00
2022-11-15T05:23:44.364Z,392.90
2022-11-15T05:29:04.504Z,352.02
2022-11-15T05:34:26.597Z,313.05
2022-11-15T05:39:47.014Z,191.52
2022-11-15T05:45:09.438Z,141.95
2022-11-15T05:50:30.336Z,291.33
2022-11-15T05:55:51.521Z,202.20
2022-11-15T06:01:12.117Z,323.83
2022-11-15T06:06:32.032Z,181.32
2022-11-15T06:11:52.328Z,152.90
2022-11-15T06:17:12.890Z,216.32
2022-11-15T06:22:33.196Z,139.40
2022-11-15T06:27:54.717Z,243.20
2022-11-15T06:33:14.996Z,242.98
2022-11-15T06:38:35.706Z,284.98
2022-11-15T06:43:56.016Z,154.85
2022-11-15T06:49:16.556Z,349.88
2022-11-15T06:54:36.716Z,171.07
2022-11-15T06:59:57.073Z,138.80
2022-11-15T07:05:17.481Z,156.90
2022-11-15T07:10:37.893Z,237.30
2022-11-15T07:15:58.497Z,231.60
2022-11-15T07:21:21.311Z,246.20
2022-11-15T07:26:45.060Z,265.48
2022-11-15T07:32:05.910Z,157.70
2022-11-15T07:37:26.027Z,205.43
2022-11-15T07:42:55.222Z,211.68
2022-11-15T07:48:15.167Z,200.93
2022-11-15T07:53:35.599Z,138.45
2022-11-15T07:58:56.139Z,170.48
2022-11-15T08:04:16.466Z,199.18
2022-11-15T08:09:36.381Z,140.77
2022-11-15T08:14:57.374Z,150.48
2022-11-15T08:20:17.470Z,121.50
2022-11-15T08:25:37.608Z,236.98
2022-11-15T08:30:58.433Z,182.02
2022-11-15T08:36:18.901Z,195.05
2022-11-15T08:41:39.698Z,159.88
2022-11-15T08:47:00.481Z,171.02
2022-11-15T08:52:20.829Z,147.02
2022-11-15T08:57:41.019Z,147.60
2022-11-15T09:03:00.922Z,191.18
2022-11-15T09:08:57.310Z,130.73
2022-11-15T09:14:01.578Z,234.75
2022-11-15T09:19:22.234Z,167.20
2022-11-15T09:24:42.569Z,202.80
2022-11-15T09:30:02.825Z,211.65
2022-11-15T09:35:22.897Z,130.68
2022-11-15T09:40:43.306Z,196.20
2022-11-15T09:46:32.534Z,231.65
2022-11-15T09:51:55.156Z,211.00
2022-11-15T09:57:04.642Z,228.32
2022-11-15T10:02:15.299Z,133.40
2022-11-15T10:07:21.794Z,179.18
2022-11-15T10:12:24.128Z,164.63
2022-11-15T10:17:35.100Z,145.27
2022-11-15T10:22:40.540Z,103.20
2022-11-15T10:27:44.166Z,105.90
2022-11-15T10:32:47.923Z,91.70
2022-11-15T10:37:49.853Z,89.78
2022-11-15T10:43:09.981Z,105.43
2022-11-15T10:48:14.584Z,110.72
2022-11-15T10:53:25.103Z,108.75
2022-11-15T10:59:05.589Z,116.00
2022-11-15T11:04:08.729Z,200.52
2022-11-15T11:09:24.409Z,185.93
2022-11-15T11:14:28.773Z,110.22
2022-11-15T11:19:54.632Z,138.18
2022-11-15T11:25:06.097Z,141.25
2022-11-15T11:30:15.578Z,127.90
2022-11-15T11:35:33.629Z,114.28
2022-11-15T11:40:44.328Z,124.25
2022-11-15T11:46:01.449Z,145.68
2022-11-15T11:51:50.425Z,129.70
2022-11-15T11:56:54.859Z,143.85
2022-11-15T12:01:57.950Z,140.85
2022-11-15T12:07:09.368Z,140.20
2022-11-15T12:12:30.471Z,139.90
2022-11-15T12:17:33.227Z,141.13
2022-11-15T12:22:46.277Z,121.72
2022-11-15T12:27:56.648Z,127.22
2022-11-15T12:33:00.585Z,124.78
2022-11-15T12:38:02.305Z,117.35
2022-11-15T12:43:16.286Z,105.18
2022-11-15T12:48:18.068Z,116.10
2022-11-15T12:53:25.702Z,106.32
2022-11-15T12:58:39.958Z,122.38
2022-11-15T13:04:13.825Z,125.88
2022-11-15T13:09:33.490Z,147.25
2022-11-15T13:14:42.448Z,138.25
2022-11-15T13:19:44.641Z,142.75
2022-11-15T13:24:46.280Z,137.45
2022-11-15T13:29:48.404Z,143.82
2022-11-15T13:34:53.767Z,141.55
2022-11-15T13:39:55.481Z,139.25
2022-11-15T13:45:02.507Z,145.38
2022-11-15T13:50:09.633Z,154.18
2022-11-15T13:55:18.625Z,141.70
2022-11-15T14:00:41.143Z,137.23
2022-11-15T14:05:43.183Z,138.20
2022-11-15T14:10:44.799Z,128.20
2022-11-15T14:15:46.422Z,138.43
2022-11-15T14:20:48.105Z,129.88
2022-11-15T14:25:58.104Z,121.72
2022-11-15T14:31:01.169Z,124.05
2022-11-15T14:36:12.482Z,128.25
2022-11-15T14:41:23.470Z,124.38
2022-11-15T14:46:25.079Z,125.07
2022-11-15T14:51:27.223Z,116.43
2022-11-15T14:56:28.937Z,123.10
2022-11-15T15:01:30.562Z,129.07
2022-11-15T15:06:32.231Z,131.65
2022-11-15T15:11:34.282Z,122.93
2022-11-15T15:16:36.136Z,138.20
2022-11-15T15:21:38.998Z,122.25
2022-11-15T15:26:41.380Z,132.52
2022-11-15T15:31:43.062Z,127.97
2022-11-15T15:36:44.668Z,130.50
2022-11-15T15:41:46.451Z,112.47
2022-11-15T15:46:48.027Z,106.03
2022-11-15T15:51:49.641Z,120.22
2022-11-15T15:56:56.070Z,98.40
2022-11-15T16:01:58.367Z,76.00
2022-11-15T16:07:03.999Z,69.93
2022-11-15T16:12:06.598Z,69.05
2022-11-15T16:17:15.640Z,70.03
2022-11-15T16:27:21.651Z,74.88
2022-11-15T16:32:23.928Z,72.03
2022-11-15T16:37:25.606Z,70.95
2022-11-15T16:42:27.174Z,74.03
2022-11-15T16:47:28.774Z,72.70
2022-11-15T16:52:30.712Z,67.05
2022-11-15T16:57:32.517Z,71.07
2022-11-15T17:02:34.478Z,71.05
2022-11-15T17:07:36.414Z,70.60
2022-11-15T17:12:38.513Z,69.60
2022-11-15T17:17:41.509Z,65.68
2022-11-15T17:22:43.239Z,72.57
2022-11-15T17:27:44.953Z,62.00
2022-11-15T17:32:49.841Z,75.78
2022-11-15T17:37:52.759Z,71.20
2022-11-15T17:42:55.457Z,71.97
2022-11-15T17:47:57.090Z,71.32
2022-11-15T17:53:00.091Z,65.72
2022-11-15T17:58:01.687Z,67.95
2022-11-15T18:03:03.571Z,74.20
2022-11-15T18:08:05.428Z,76.80
2022-11-15T18:13:07.161Z,70.55
2022-11-15T18:18:09.022Z,59.47
2022-11-15T18:23:10.859Z,62.42
2022-11-15T18:28:12.456Z,66.18
2022-11-15T18:33:14.122Z,59.35
2022-11-15T18:38:15.728Z,51.67
2022-11-15T18:43:17.474Z,55.20
2022-11-15T18:48:19.080Z,47.28
2022-11-15T18:53:20.867Z,46.08
2022-11-15T18:58:22.654Z,50.05
2022-11-15T19:03:24.784Z,47.70
2022-11-15T19:08:26.865Z,48.50
2022-11-15T19:13:29.598Z,43.45
2022-11-15T19:18:33.245Z,43.30
2022-11-15T19:23:39.325Z,48.17
2022-11-15T19:28:41.741Z,50.22
2022-11-15T19:33:45.017Z,48.05
2022-11-15T19:38:55.123Z,50.08
2022-11-15T19:43:57.377Z,50.83
2022-11-15T19:48:59.257Z,51.67
2022-11-15T19:54:06.332Z,49.30
2022-11-15T19:59:11.885Z,52.42
2022-11-15T20:04:13.642Z,46.40
2022-11-15T20:09:16.633Z,50.72
2022-11-15T20:14:20.394Z,51.75
2022-11-15T20:19:22.620Z,51.42
2022-11-15T20:24:24.368Z,55.55
2022-11-15T20:29:48.415Z,48.17
2022-11-15T20:34:53.998Z,50.35
2022-11-15T20:39:55.881Z,50.47
2022-11-15T20:44:57.497Z,66.88
2022-11-15T20:50:14.989Z,73.20
2022-11-15T20:55:21.629Z,64.40
2022-11-15T21:00:25.802Z,75.63
2022-11-15T21:05:28.670Z,89.80
2022-11-15T21:10:50.344Z,69.90
2022-11-15T21:15:55.797Z,84.30
2022-11-15T21:21:05.097Z,80.95
2022-11-15T21:26:06.731Z,102.85
2022-11-15T21:31:09.034Z,83.57
2022-11-15T21:36:10.843Z,80.75
2022-11-15T21:41:12.979Z,77.22
2022-11-15T21:46:15.062Z,61.30
2022-11-15T21:51:17.400Z,63.03
2022-11-15T21:56:19.038Z,86.90
2022-11-15T22:01:40.206Z,75.75
2022-11-15T22:06:42.085Z,71.65
2022-11-15T22:11:43.930Z,81.70
2022-11-15T22:16:45.693Z,87.97
2022-11-15T22:21:47.511Z,84.07
2022-11-15T22:26:49.207Z,78.57
2022-11-15T22:31:50.885Z,81.70
2022-11-15T22:37:19.128Z,99.93
2022-11-15T22:42:17.179Z,81.40
2022-11-15T22:47:21.669Z,81.28
2022-11-15T22:52:23.379Z,108.35
2022-11-15T22:57:25.138Z,101.60
2022-11-15T23:02:27.293Z,113.20
2022-11-15T23:07:29.258Z,122.68
2022-11-15T23:12:57.290Z,127.63
2022-11-15T23:17:58.972Z,227.98
2022-11-15T23:23:00.825Z,187.93
2022-11-15T23:28:03.516Z,134.13
2022-11-15T23:33:23.899Z,172.80
2022-11-15T23:38:25.691Z,212.15
2022-11-15T23:43:27.864Z,176.48
2022-11-15T23:48:29.948Z,260.25
2022-11-15T23:53:31.791Z,282.98
2022-11-15T23:58:34.334Z,222.40
